createdAt,value
2018-11-23T00:00:29.572Z,30.60
2018-11-23T00:02:58.751Z,33.50
2018-11-23T00:05:27.270Z,33.07
2018-11-23T00:07:56.611Z,38.67
2018-11-23T00:10:26.377Z,35.17
2018-11-23T00:12:54.859Z,32.63
2018-11-23T00:15:24.305Z,34.70
2018-11-23T00:17:52.850Z,34.93
2018-11-23T00:20:22.690Z,33.70
2018-11-23T00:22:51.227Z,35.40
2018-11-23T00:25:21.002Z,37.10
2018-11-23T00:27:49.696Z,34.97
2018-11-23T00:30:20.102Z,36.93
2018-11-23T00:32:49.174Z,31.63
2018-11-23T00:35:21.257Z,35.80
2018-11-23T00:37:50.318Z,36.00
2018-11-23T00:40:20.954Z,36.43
2018-11-23T00:42:49.650Z,36.67
2018-11-23T00:45:18.319Z,36.73
2018-11-23T00:47:47.694Z,34.50
2018-11-23T00:50:17.477Z,34.00
2018-11-23T00:52:46.372Z,35.03
2018-11-23T00:55:16.875Z,33.00
2018-11-23T00:57:45.451Z,30.83
2018-11-23T01:00:18.106Z,33.23
2018-11-23T01:02:46.694Z,33.27
2018-11-23T01:05:16.646Z,32.80
2018-11-23T01:07:45.766Z,33.53
2018-11-23T01:10:16.078Z,34.97
2018-11-23T01:12:45.799Z,31.13
2018-11-23T01:15:15.075Z,31.53
2018-11-23T01:17:43.664Z,32.00
2018-11-23T01:20:15.278Z,31.37
2018-11-23T01:22:44.006Z,29.33
2018-11-23T01:25:13.946Z,32.17
2018-11-23T01:27:43.298Z,27.70
2018-11-23T01:30:15.387Z,33.83
2018-11-23T01:32:43.948Z,32.23
2018-11-23T01:35:12.574Z,32.57
2018-11-23T01:37:41.119Z,33.10
2018-11-23T01:41:34.034Z,32.70
2018-11-23T01:44:02.554Z,31.07
2018-11-23T01:46:31.305Z,33.07
2018-11-23T01:48:59.863Z,30.23
2018-11-23T01:51:28.398Z,31.47
2018-11-23T01:53:56.943Z,36.50
2018-11-23T01:56:25.435Z,33.70
2018-11-23T01:58:55.623Z,34.27
2018-11-23T02:01:24.138Z,36.47
2018-11-23T02:03:52.691Z,35.40
2018-11-23T02:06:21.198Z,35.70
2018-11-23T02:08:50.163Z,33.10
2018-11-23T02:11:18.697Z,34.07
2018-11-23T02:13:47.362Z,33.87
2018-11-23T02:16:15.882Z,32.97
2018-11-23T02:18:44.470Z,32.70
2018-11-23T02:21:12.947Z,34.50
2018-11-23T02:23:41.479Z,35.93
2018-11-23T02:26:09.998Z,37.67
2018-11-23T02:28:38.578Z,36.73
2018-11-23T02:31:08.625Z,40.53
2018-11-23T02:33:38.998Z,42.97
2018-11-23T02:36:08.581Z,37.00
2018-11-23T02:38:37.295Z,39.97
2018-11-23T02:41:05.869Z,41.73
2018-11-23T02:43:34.440Z,37.40
2018-11-23T02:46:03.015Z,37.73
2018-11-23T02:48:31.535Z,34.80
2018-11-23T02:51:00.256Z,31.67
2018-11-23T02:53:28.776Z,33.87
2018-11-23T02:55:57.279Z,34.53
2018-11-23T02:58:25.841Z,32.80
2018-11-23T03:00:54.362Z,33.50
2018-11-23T03:03:23.816Z,32.73
2018-11-23T03:05:52.333Z,33.37
2018-11-23T03:08:20.882Z,41.37
2018-11-23T03:10:49.387Z,32.27
2018-11-23T03:13:17.947Z,32.97
2018-11-23T03:15:47.656Z,32.37
2018-11-23T03:18:16.477Z,33.37
2018-11-23T03:20:44.963Z,39.97
2018-11-23T03:23:13.482Z,35.23
2018-11-23T03:25:41.967Z,37.13
2018-11-23T03:28:10.543Z,33.83
2018-11-23T03:30:39.031Z,36.57
2018-11-23T03:33:07.615Z,34.13
2018-11-23T03:35:36.127Z,32.60
2018-11-23T03:38:04.669Z,31.30
2018-11-23T03:40:33.158Z,35.77
2018-11-23T03:43:01.686Z,38.23
2018-11-23T03:45:30.230Z,38.03
2018-11-23T03:47:58.726Z,39.00
2018-11-23T03:50:27.249Z,36.87
2018-11-23T03:52:57.180Z,31.83
2018-11-23T03:55:25.715Z,33.57
2018-11-23T03:57:54.235Z,32.27
2018-11-23T04:00:23.910Z,32.43
2018-11-23T04:02:52.803Z,34.63
2018-11-23T04:05:21.455Z,36.00
2018-11-23T04:07:50.034Z,37.13
2018-11-23T04:10:18.620Z,34.00
2018-11-23T04:12:47.239Z,33.40
2018-11-23T04:15:16.234Z,33.73
2018-11-23T04:17:44.845Z,33.00
2018-11-23T04:20:14.621Z,31.10
2018-11-23T04:22:43.393Z,30.77
2018-11-23T04:25:12.558Z,31.50
2018-11-23T04:27:42.298Z,31.10
2018-11-23T04:30:12.987Z,32.53
2018-11-23T04:32:42.527Z,32.40
2018-11-23T04:35:13.257Z,31.63
2018-11-23T04:37:42.227Z,30.37
2018-11-23T04:40:11.899Z,28.83
2018-11-23T04:42:40.794Z,31.37
2018-11-23T04:45:09.892Z,31.97
2018-11-23T04:47:39.051Z,31.13
2018-11-23T04:50:09.391Z,31.63
2018-11-23T04:52:37.858Z,33.00
2018-11-23T04:55:07.278Z,34.87
2018-11-23T04:57:35.782Z,32.53
2018-11-23T05:00:04.634Z,31.67
2018-11-23T05:02:39.172Z,34.23
2018-11-23T05:05:09.996Z,33.17
2018-11-23T05:07:38.569Z,34.27
2018-11-23T05:10:09.403Z,31.57
2018-11-23T05:12:41.130Z,33.17
2018-11-23T05:15:11.253Z,35.10
2018-11-23T05:17:39.923Z,33.43
2018-11-23T05:20:10.761Z,36.50
2018-11-23T05:22:40.050Z,32.73
2018-11-23T05:25:09.872Z,36.17
2018-11-23T05:27:38.416Z,35.67
2018-11-23T05:30:12.849Z,32.30
2018-11-23T05:32:41.972Z,37.77
2018-11-23T05:35:11.801Z,32.67
2018-11-23T05:37:41.520Z,35.77
2018-11-23T05:40:12.410Z,35.03
2018-11-23T05:42:41.023Z,33.73
2018-11-23T05:45:12.030Z,34.53
2018-11-23T05:47:40.490Z,34.37
2018-11-23T05:50:13.426Z,33.27
2018-11-23T05:52:42.493Z,32.13
2018-11-23T05:55:11.555Z,33.63
2018-11-23T05:57:40.239Z,35.00
2018-11-23T06:00:13.504Z,33.90
2018-11-23T06:02:42.170Z,34.93
2018-11-23T06:05:10.667Z,39.47
2018-11-23T06:07:39.306Z,48.30
2018-11-23T06:10:11.550Z,34.07
2018-11-23T06:12:40.064Z,34.43
2018-11-23T06:15:10.770Z,40.03
2018-11-23T06:17:39.995Z,53.97
2018-11-23T06:20:12.345Z,40.20
2018-11-23T06:22:40.851Z,34.93
2018-11-23T06:25:14.574Z,35.30
2018-11-23T06:27:43.151Z,34.43
2018-11-23T06:30:30.025Z,34.23
2018-11-23T06:33:09.872Z,32.07
2018-11-23T06:35:38.698Z,31.47
2018-11-23T06:38:07.226Z,36.00
2018-11-23T06:40:36.100Z,33.90
2018-11-23T06:43:05.566Z,36.33
2018-11-23T06:45:36.953Z,35.20
2018-11-23T06:48:06.249Z,39.20
2018-11-23T06:50:34.735Z,37.40
2018-11-23T06:53:03.286Z,35.57
2018-11-23T06:55:31.786Z,35.60
2018-11-23T06:58:00.317Z,35.33
2018-11-23T07:00:28.894Z,37.33
2018-11-23T07:02:59.231Z,41.33
2018-11-23T07:05:27.095Z,37.73
2018-11-23T07:07:55.640Z,39.20
2018-11-23T07:10:24.229Z,38.90
2018-11-23T07:12:53.112Z,38.40
2018-11-23T07:15:21.631Z,37.90
2018-11-23T07:17:50.358Z,39.77
2018-11-23T07:20:18.915Z,36.57
2018-11-23T07:22:47.430Z,38.43
2018-11-23T07:25:17.246Z,40.70
2018-11-23T07:27:45.770Z,39.70
2018-11-23T07:30:18.680Z,38.70
2018-11-23T07:32:47.178Z,41.00
2018-11-23T07:35:16.278Z,38.53
2018-11-23T07:37:44.893Z,37.73
2018-11-23T07:41:28.332Z,39.33
2018-11-23T07:43:56.818Z,36.83
2018-11-23T07:46:25.294Z,39.97
2018-11-23T07:48:54.858Z,38.47
2018-11-23T07:51:23.465Z,37.87
2018-11-23T07:53:51.990Z,39.27
2018-11-23T07:56:20.536Z,38.63
2018-11-23T07:58:49.169Z,39.77
2018-11-23T08:01:17.738Z,36.87
2018-11-23T08:03:46.319Z,36.40
2018-11-23T08:06:14.874Z,37.57
2018-11-23T08:08:43.395Z,37.67
2018-11-23T08:11:11.948Z,39.60
2018-11-23T08:13:40.800Z,38.40
2018-11-23T08:16:09.305Z,38.13
2018-11-23T08:18:37.838Z,39.63
2018-11-23T08:21:06.369Z,41.83
2018-11-23T08:23:34.906Z,38.63
2018-11-23T08:26:03.746Z,40.23
2018-11-23T08:28:32.282Z,38.00
2018-11-23T08:31:00.822Z,38.73
2018-11-23T08:33:29.375Z,37.60
2018-11-23T08:35:57.882Z,35.77
2018-11-23T08:38:26.605Z,36.07
2018-11-23T08:40:55.300Z,36.97
2018-11-23T08:43:23.856Z,37.47
2018-11-23T08:45:52.330Z,38.63
2018-11-23T08:48:21.181Z,35.43
2018-11-23T08:50:49.675Z,37.87
2018-11-23T08:53:18.415Z,34.77
2018-11-23T08:55:46.863Z,36.63
2018-11-23T08:58:15.378Z,34.77
2018-11-23T09:00:44.779Z,34.83
2018-11-23T09:03:13.336Z,34.53
2018-11-23T09:05:41.962Z,34.97
2018-11-23T09:08:10.459Z,38.50
2018-11-23T09:10:38.957Z,38.40
2018-11-23T09:13:10.496Z,40.57
2018-11-23T09:15:38.995Z,37.77
2018-11-23T09:18:07.486Z,37.17
2018-11-23T09:20:36.030Z,35.30
2018-11-23T09:23:04.555Z,36.33
2018-11-23T09:25:33.585Z,37.70
2018-11-23T09:28:02.198Z,31.83
2018-11-23T09:30:31.524Z,37.80
2018-11-23T09:33:00.013Z,39.27
2018-11-23T09:35:29.084Z,42.63
2018-11-23T09:38:03.996Z,36.50
2018-11-23T09:40:32.617Z,37.43
2018-11-23T09:43:01.144Z,32.17
2018-11-23T09:45:31.222Z,34.90
2018-11-23T09:48:01.652Z,36.00
2018-11-23T09:50:30.350Z,36.63
2018-11-23T09:53:01.132Z,35.27
2018-11-23T09:55:30.683Z,35.53
2018-11-23T09:57:59.244Z,32.23
2018-11-23T10:00:29.352Z,34.67
2018-11-23T10:02:58.656Z,32.37
2018-11-23T10:05:28.090Z,31.20
2018-11-23T10:07:58.068Z,30.00
2018-11-23T10:10:42.791Z,31.37
2018-11-23T10:13:11.286Z,31.63
2018-11-23T10:15:39.834Z,31.00
2018-11-23T10:18:08.323Z,32.07
2018-11-23T10:20:36.980Z,33.13
2018-11-23T10:23:05.602Z,32.33
2018-11-23T10:25:35.275Z,31.97
2018-11-23T10:28:03.738Z,35.37
2018-11-23T10:30:34.590Z,31.27
2018-11-23T10:33:04.489Z,34.77
2018-11-23T10:35:33.060Z,35.80
2018-11-23T10:38:02.792Z,34.63
2018-11-23T10:40:33.371Z,34.10
2018-11-23T10:43:01.848Z,36.27
2018-11-23T10:45:32.019Z,32.90
2018-11-23T10:48:01.507Z,33.07
2018-11-23T10:50:32.606Z,33.97
2018-11-23T10:53:01.109Z,34.73
2018-11-23T10:55:30.981Z,33.47
2018-11-23T10:57:59.784Z,29.60
2018-11-23T11:00:33.651Z,33.43
2018-11-23T11:03:40.779Z,30.80
2018-11-23T11:06:14.639Z,30.57
2018-11-23T11:08:43.211Z,32.63
2018-11-23T11:11:13.792Z,33.70
2018-11-23T11:13:40.282Z,32.53
2018-11-23T11:16:08.761Z,36.00
2018-11-23T11:18:37.226Z,32.50
2018-11-23T11:21:05.837Z,33.37
2018-11-23T11:23:34.302Z,33.03
2018-11-23T11:26:02.803Z,30.07
2018-11-23T11:28:31.433Z,29.17
2018-11-23T11:30:59.941Z,29.07
2018-11-23T11:33:28.454Z,26.80
2018-11-23T11:35:56.971Z,26.03
2018-11-23T11:38:25.738Z,28.40
2018-11-23T11:40:54.263Z,27.50
2018-11-23T11:43:22.756Z,27.37
2018-11-23T11:45:51.247Z,29.03
2018-11-23T11:48:19.750Z,26.50
2018-11-23T11:50:49.066Z,26.60
2018-11-23T11:53:17.811Z,26.17
2018-11-23T11:55:46.303Z,24.60
2018-11-23T11:58:14.763Z,26.23
2018-11-23T12:00:43.248Z,25.10
2018-11-23T12:03:11.751Z,25.80
2018-11-23T12:05:41.219Z,38.57
2018-11-23T12:08:09.706Z,39.20
2018-11-23T12:10:38.191Z,35.40
2018-11-23T12:13:06.669Z,23.60
2018-11-23T12:15:35.203Z,36.93
2018-11-23T12:18:04.427Z,38.80
2018-11-23T12:20:32.921Z,25.40
2018-11-23T12:23:01.414Z,25.73
2018-11-23T12:25:30.033Z,26.47
2018-11-23T12:27:58.493Z,25.13
2018-11-23T12:30:26.941Z,24.70
2018-11-23T12:32:55.806Z,26.53
2018-11-23T12:35:24.578Z,24.13
2018-11-23T12:37:53.093Z,24.70
2018-11-23T12:40:21.931Z,24.57
2018-11-23T12:42:50.548Z,27.10
2018-11-23T12:45:20.435Z,28.53
2018-11-23T12:47:48.929Z,28.77
2018-11-23T12:50:19.373Z,29.90
2018-11-23T12:52:47.925Z,30.27
2018-11-23T12:55:17.021Z,32.10
2018-11-23T12:57:45.522Z,29.73
2018-11-23T13:00:29.518Z,29.87
2018-11-23T13:03:00.251Z,28.30
2018-11-23T13:05:29.694Z,31.10
2018-11-23T13:07:59.727Z,31.23
2018-11-23T13:10:28.735Z,34.10
2018-11-23T13:12:57.822Z,30.70
2018-11-23T13:15:26.359Z,29.50
2018-11-23T13:17:55.300Z,31.67
2018-11-23T13:20:23.814Z,32.00
2018-11-23T13:22:52.362Z,33.60
2018-11-23T13:25:22.343Z,30.50
2018-11-23T13:27:51.122Z,30.27
2018-11-23T13:30:35.866Z,27.20
2018-11-23T13:33:04.423Z,30.43
2018-11-23T13:35:32.900Z,28.43
2018-11-23T13:38:01.411Z,33.40
2018-11-23T13:40:30.298Z,30.47
2018-11-23T13:42:59.775Z,28.47
2018-11-23T13:45:31.730Z,27.30
2018-11-23T13:48:00.231Z,29.40
2018-11-23T13:50:29.070Z,25.07
2018-11-23T13:52:59.964Z,26.37
2018-11-23T13:55:28.437Z,29.13
2018-11-23T13:57:56.948Z,27.73
2018-11-23T14:00:26.886Z,28.43
2018-11-23T14:02:55.401Z,28.37
2018-11-23T14:05:26.411Z,30.40
2018-11-23T14:07:56.350Z,29.13
2018-11-23T14:10:25.876Z,29.63
2018-11-23T14:12:54.653Z,30.13
2018-11-23T14:15:27.434Z,27.73
2018-11-23T14:17:57.051Z,45.73
2018-11-23T14:20:26.306Z,40.53
2018-11-23T14:22:54.882Z,55.47
2018-11-23T14:25:24.905Z,41.00
2018-11-23T14:27:53.834Z,30.70
2018-11-23T14:30:25.703Z,31.43
2018-11-23T14:32:54.309Z,47.57
2018-11-23T14:35:25.114Z,26.97
2018-11-23T14:37:54.421Z,33.83
2018-11-23T14:40:22.949Z,29.77
2018-11-23T14:42:52.043Z,39.40
2018-11-23T14:45:23.919Z,31.07
2018-11-23T14:47:53.241Z,29.73
2018-11-23T14:50:23.135Z,31.30
2018-11-23T14:52:52.670Z,30.97
2018-11-23T14:55:21.446Z,28.53
2018-11-23T14:57:49.973Z,33.37
2018-11-23T15:00:21.052Z,33.67
2018-11-23T15:02:50.831Z,34.87
2018-11-23T15:05:19.649Z,28.03
2018-11-23T15:07:48.229Z,33.20
2018-11-23T15:10:20.070Z,44.23
2018-11-23T15:12:49.885Z,33.40
2018-11-23T15:15:19.826Z,38.63
2018-11-23T15:17:49.408Z,36.00
2018-11-23T15:20:20.479Z,35.30
2018-11-23T15:22:50.976Z,31.43
2018-11-23T15:25:19.491Z,35.57
2018-11-23T15:27:48.045Z,32.83
2018-11-23T15:30:26.735Z,33.37
2018-11-23T15:32:55.619Z,36.13
2018-11-23T15:35:24.126Z,30.90
2018-11-23T15:37:52.667Z,32.20
2018-11-23T15:40:23.389Z,30.93
2018-11-23T15:42:53.430Z,32.77
2018-11-23T15:45:23.214Z,31.23
2018-11-23T15:47:51.947Z,35.67
2018-11-23T15:50:21.931Z,35.23
2018-11-23T15:52:50.504Z,33.57
2018-11-23T15:55:24.216Z,38.07
2018-11-23T15:57:53.843Z,37.90
2018-11-23T16:00:26.476Z,36.33
2018-11-23T16:02:55.198Z,32.97
2018-11-23T16:05:23.953Z,36.80
2018-11-23T16:07:54.159Z,33.53
2018-11-23T16:10:29.153Z,35.50
2018-11-23T16:13:00.127Z,34.77
2018-11-23T16:15:29.188Z,33.87
2018-11-23T16:17:58.177Z,36.03
2018-11-23T16:20:29.229Z,36.73
2018-11-23T16:22:59.281Z,33.23
2018-11-23T16:25:27.790Z,33.63
2018-11-23T16:27:57.858Z,31.93
2018-11-23T16:30:28.561Z,36.07
2018-11-23T16:32:58.281Z,37.70
2018-11-23T16:35:28.132Z,37.97
2018-11-23T16:37:57.675Z,36.07
2018-11-23T16:40:27.725Z,32.97
2018-11-23T16:42:56.913Z,34.70
2018-11-23T16:45:26.809Z,31.37
2018-11-23T16:47:56.342Z,33.87
2018-11-23T16:50:25.224Z,36.23
2018-11-23T16:52:54.458Z,41.23
2018-11-23T16:55:23.563Z,37.80
2018-11-23T16:57:57.695Z,37.13
2018-11-23T17:00:27.738Z,39.43
2018-11-23T17:02:57.455Z,36.43
2018-11-23T17:05:30.450Z,34.97
2018-11-23T17:07:59.010Z,38.83
2018-11-23T17:10:27.868Z,36.37
2018-11-23T17:12:56.451Z,39.20
2018-11-23T17:15:26.411Z,36.10
2018-11-23T17:17:54.909Z,39.30
2018-11-23T17:20:24.790Z,37.53
2018-11-23T17:22:54.425Z,38.57
2018-11-23T17:25:23.821Z,38.70
2018-11-23T17:27:53.238Z,37.33
2018-11-23T17:30:25.261Z,38.53
2018-11-23T17:32:54.701Z,31.87
2018-11-23T17:35:23.469Z,32.23
2018-11-23T17:37:52.010Z,32.53
2018-11-23T17:40:21.949Z,33.77
2018-11-23T17:42:50.494Z,34.97
2018-11-23T17:45:20.823Z,33.17
2018-11-23T17:47:49.682Z,34.67
2018-11-23T17:50:20.256Z,36.23
2018-11-23T17:52:49.320Z,32.47
2018-11-23T17:55:17.821Z,33.50
2018-11-23T17:57:47.059Z,33.97
2018-11-23T18:00:17.641Z,32.93
2018-11-23T18:02:46.635Z,32.00
2018-11-23T18:05:16.116Z,41.43
2018-11-23T18:07:44.704Z,27.83
2018-11-23T18:10:15.605Z,29.67
2018-11-23T18:12:44.964Z,29.87
2018-11-23T18:15:16.670Z,27.93
2018-11-23T18:17:45.912Z,27.13
2018-11-23T18:20:15.802Z,26.57
2018-11-23T18:22:44.449Z,27.53
2018-11-23T18:25:14.916Z,28.50
2018-11-23T18:27:44.142Z,27.13
2018-11-23T18:30:13.159Z,26.03
2018-11-23T18:32:41.681Z,27.23
2018-11-23T18:35:12.486Z,23.13
2018-11-23T18:37:40.969Z,21.73
2018-11-23T18:40:11.554Z,23.70
2018-11-23T18:42:40.058Z,25.07
2018-11-23T18:45:12.164Z,23.10
2018-11-23T18:47:41.331Z,24.70
2018-11-23T18:50:11.224Z,22.30
2018-11-23T18:52:39.793Z,21.17
2018-11-23T18:55:09.029Z,18.87
2018-11-23T18:57:37.510Z,20.77
2018-11-23T19:00:09.341Z,23.03
2018-11-23T19:02:37.889Z,23.50
2018-11-23T19:05:11.886Z,19.07
2018-11-23T19:07:40.399Z,20.23
2018-11-23T19:10:10.790Z,21.17
2018-11-23T19:12:39.241Z,22.23
2018-11-23T19:15:12.594Z,21.30
2018-11-23T19:17:41.131Z,22.20
2018-11-23T19:20:14.986Z,23.47
2018-11-23T19:22:44.634Z,21.80
2018-11-23T19:25:13.158Z,22.23
2018-11-23T19:27:41.642Z,22.10
2018-11-23T19:30:12.929Z,22.57
2018-11-23T19:32:41.397Z,23.17
2018-11-23T19:35:09.905Z,22.23
2018-11-23T19:37:38.417Z,22.73
2018-11-23T19:40:10.489Z,24.07
2018-11-23T19:42:39.080Z,26.67
2018-11-23T19:45:09.626Z,23.20
2018-11-23T19:47:38.100Z,25.17
2018-11-23T19:50:14.649Z,23.03
2018-11-23T19:52:43.161Z,25.07
2018-11-23T19:55:12.759Z,25.33
2018-11-23T19:57:41.258Z,26.70
2018-11-23T20:00:16.462Z,26.80
2018-11-23T20:02:44.958Z,25.17
2018-11-23T20:05:13.507Z,25.57
2018-11-23T20:07:42.020Z,35.93
2018-11-23T20:10:12.431Z,32.83
2018-11-23T20:12:40.897Z,28.30
2018-11-23T20:15:12.276Z,27.33
2018-11-23T20:17:41.536Z,25.43
2018-11-23T20:20:10.674Z,26.73
2018-11-23T20:22:39.178Z,26.90
2018-11-23T20:25:09.864Z,22.07
2018-11-23T20:27:38.365Z,25.23
2018-11-23T20:30:14.848Z,21.57
2018-11-23T20:32:43.348Z,21.83
2018-11-23T20:35:13.007Z,23.03
2018-11-23T20:37:41.510Z,21.63
2018-11-23T20:40:13.272Z,24.23
2018-11-23T20:42:41.761Z,22.67
2018-11-23T20:45:11.478Z,23.80
2018-11-23T20:47:40.788Z,21.03
2018-11-23T20:50:12.204Z,21.87
2018-11-23T20:52:43.538Z,22.07
2018-11-23T20:55:17.245Z,22.67
2018-11-23T20:57:45.771Z,22.57
2018-11-23T21:00:15.232Z,21.13
2018-11-23T21:02:44.175Z,22.87
2018-11-23T21:05:13.882Z,23.17
2018-11-23T21:07:42.354Z,22.90
2018-11-23T21:10:20.109Z,23.87
2018-11-23T21:12:42.374Z,26.93
2018-11-23T21:15:21.002Z,25.80
2018-11-23T21:17:49.501Z,25.10
2018-11-23T21:20:21.214Z,23.77
2018-11-23T21:22:49.700Z,27.77
2018-11-23T21:25:18.244Z,25.90
2018-11-23T21:27:46.734Z,26.17
2018-11-23T21:30:17.416Z,27.53
2018-11-23T21:32:45.922Z,29.53
2018-11-23T21:35:14.558Z,28.93
2018-11-23T21:37:43.123Z,31.13
2018-11-23T21:40:12.766Z,31.17
2018-11-23T21:42:41.281Z,30.53
2018-11-23T21:45:17.458Z,32.93
2018-11-23T21:47:45.994Z,30.70
2018-11-23T21:50:16.369Z,34.33
2018-11-23T21:52:44.954Z,33.93
2018-11-23T21:55:16.562Z,32.93
2018-11-23T21:57:45.071Z,32.07
2018-11-23T22:00:14.686Z,33.47
2018-11-23T22:02:43.232Z,33.00
2018-11-23T22:05:11.816Z,33.63
2018-11-23T22:07:40.363Z,31.17
2018-11-23T22:10:13.526Z,32.07
2018-11-23T22:12:42.182Z,32.83
2018-11-23T22:15:15.226Z,31.63
2018-11-23T22:17:43.742Z,31.73
2018-11-23T22:20:14.410Z,32.63
2018-11-23T22:22:43.001Z,30.93
2018-11-23T22:25:12.785Z,33.20
2018-11-23T22:27:41.354Z,31.27
2018-11-23T22:30:12.426Z,29.90
2018-11-23T22:32:40.958Z,31.97
2018-11-23T22:35:10.482Z,28.33
2018-11-23T22:37:38.991Z,29.87
2018-11-23T22:40:10.353Z,27.53
2018-11-23T22:42:38.946Z,28.53
2018-11-23T22:45:09.263Z,29.53
2018-11-23T22:47:37.831Z,31.17
2018-11-23T22:50:08.673Z,27.50
2018-11-23T22:52:37.210Z,28.53
2018-11-23T22:55:06.959Z,27.17
2018-11-23T22:57:35.461Z,26.40
2018-11-23T23:00:05.800Z,30.27
2018-11-23T23:02:34.307Z,24.80
2018-11-23T23:05:02.822Z,24.90
2018-11-23T23:07:31.338Z,24.07
2018-11-23T23:09:59.794Z,24.93
2018-11-23T23:12:28.297Z,23.77
2018-11-23T23:14:56.793Z,29.23
2018-11-23T23:17:25.323Z,26.63
2018-11-23T23:19:53.791Z,25.67
2018-11-23T23:22:23.321Z,29.27
2018-11-23T23:24:51.826Z,26.80
2018-11-23T23:27:20.280Z,26.63
2018-11-23T23:29:48.773Z,25.83
2018-11-23T23:32:17.274Z,24.67
2018-11-23T23:34:45.790Z,26.13
2018-11-23T23:37:14.281Z,25.07
2018-11-23T23:39:42.798Z,26.03
2018-11-23T23:42:11.266Z,26.40
2018-11-23T23:44:39.771Z,26.77
2018-11-23T23:47:08.263Z,25.60
2018-11-23T23:49:36.775Z,26.47
2018-11-23T23:52:05.615Z,23.03
2018-11-23T23:54:34.129Z,25.27
2018-11-23T23:57:02.610Z,21.73
2018-11-23T23:59:31.107Z,20.40
